sensor_id;sensor_type;location;lat;lon;timestamp;P1;durP1;ratioP1;P2;durP2;ratioP2
42030;SDS011;27709;52.036;5.906;2022-12-18T00:01:43;83.47;;;31.25;;
42030;SDS011;27709;52.036;5.906;2022-12-18T00:04:16;82.45;;;30.35;;
42030;SDS011;27709;52.036;5.906;2022-12-18T00:06:46;77.55;;;30.55;;
42030;SDS011;27709;52.036;5.906;2022-12-18T00:09:11;81.10;;;30.40;;
42030;SDS011;27709;52.036;5.906;2022-12-18T00:11:37;78.18;;;30.33;;
42030;SDS011;27709;52.036;5.906;2022-12-18T00:14:04;75.30;;;29.85;;
42030;SDS011;27709;52.036;5.906;2022-12-18T00:16:30;69.28;;;29.70;;
42030;SDS011;27709;52.036;5.906;2022-12-18T00:19:00;72.50;;;28.38;;
42030;SDS011;27709;52.036;5.906;2022-12-18T00:21:27;75.38;;;29.60;;
42030;SDS011;27709;52.036;5.906;2022-12-18T00:23:55;72.47;;;29.95;;
42030;SDS011;27709;52.036;5.906;2022-12-18T00:26:25;72.97;;;29.70;;
42030;SDS011;27709;52.036;5.906;2022-12-18T00:28:53;73.80;;;29.55;;
42030;SDS011;27709;52.036;5.906;2022-12-18T00:31:21;71.05;;;28.67;;
42030;SDS011;27709;52.036;5.906;2022-12-18T00:33:49;69.47;;;29.15;;
42030;SDS011;27709;52.036;5.906;2022-12-18T00:36:16;75.40;;;30.85;;
42030;SDS011;27709;52.036;5.906;2022-12-18T00:38:43;72.07;;;29.45;;
42030;SDS011;27709;52.036;5.906;2022-12-18T00:41:09;73.82;;;30.05;;
42030;SDS011;27709;52.036;5.906;2022-12-18T00:43:37;71.60;;;28.60;;
42030;SDS011;27709;52.036;5.906;2022-12-18T00:46:04;73.32;;;28.05;;
42030;SDS011;27709;52.036;5.906;2022-12-18T00:48:29;71.07;;;29.08;;
42030;SDS011;27709;52.036;5.906;2022-12-18T00:50:57;69.10;;;30.42;;
42030;SDS011;27709;52.036;5.906;2022-12-18T00:53:23;68.20;;;28.85;;
42030;SDS011;27709;52.036;5.906;2022-12-18T00:55:48;64.72;;;28.23;;
42030;SDS011;27709;52.036;5.906;2022-12-18T00:58:14;63.92;;;27.52;;
42030;SDS011;27709;52.036;5.906;2022-12-18T01:00:41;63.10;;;26.90;;
42030;SDS011;27709;52.036;5.906;2022-12-18T01:03:07;62.92;;;26.67;;
42030;SDS011;27709;52.036;5.906;2022-12-18T01:05:38;57.42;;;25.73;;
42030;SDS011;27709;52.036;5.906;2022-12-18T01:08:05;61.65;;;26.63;;
42030;SDS011;27709;52.036;5.906;2022-12-18T01:10:30;64.90;;;27.58;;
42030;SDS011;27709;52.036;5.906;2022-12-18T01:12:56;59.53;;;27.77;;
42030;SDS011;27709;52.036;5.906;2022-12-18T01:15:31;62.65;;;28.00;;
42030;SDS011;27709;52.036;5.906;2022-12-18T01:17:56;59.20;;;26.75;;
42030;SDS011;27709;52.036;5.906;2022-12-18T01:20:23;64.93;;;27.15;;
42030;SDS011;27709;52.036;5.906;2022-12-18T01:22:49;64.93;;;27.25;;
42030;SDS011;27709;52.036;5.906;2022-12-18T01:25:14;61.47;;;26.25;;
42030;SDS011;27709;52.036;5.906;2022-12-18T01:27:40;59.53;;;26.35;;
42030;SDS011;27709;52.036;5.906;2022-12-18T01:30:06;62.92;;;26.75;;
42030;SDS011;27709;52.036;5.906;2022-12-18T01:32:32;60.42;;;26.85;;
42030;SDS011;27709;52.036;5.906;2022-12-18T01:34:58;60.03;;;25.75;;
42030;SDS011;27709;52.036;5.906;2022-12-18T01:37:26;56.83;;;25.98;;
42030;SDS011;27709;52.036;5.906;2022-12-18T01:40:01;62.05;;;26.45;;
42030;SDS011;27709;52.036;5.906;2022-12-18T01:42:28;59.17;;;26.27;;
42030;SDS011;27709;52.036;5.906;2022-12-18T01:50:36;57.15;;;24.58;;
42030;SDS011;27709;52.036;5.906;2022-12-18T01:53:21;57.95;;;25.15;;
42030;SDS011;27709;52.036;5.906;2022-12-18T01:55:50;57.42;;;24.73;;
42030;SDS011;27709;52.036;5.906;2022-12-18T01:58:19;58.75;;;25.15;;
42030;SDS011;27709;52.036;5.906;2022-12-18T02:00:48;48.47;;;23.75;;
42030;SDS011;27709;52.036;5.906;2022-12-18T02:03:13;56.03;;;26.17;;
42030;SDS011;27709;52.036;5.906;2022-12-18T02:08:30;56.25;;;24.50;;
42030;SDS011;27709;52.036;5.906;2022-12-18T02:11:10;52.20;;;23.83;;
42030;SDS011;27709;52.036;5.906;2022-12-18T02:14:00;57.85;;;24.45;;
42030;SDS011;27709;52.036;5.906;2022-12-18T02:16:43;53.10;;;23.48;;
42030;SDS011;27709;52.036;5.906;2022-12-18T02:24:42;55.88;;;24.05;;
42030;SDS011;27709;52.036;5.906;2022-12-18T02:27:29;54.15;;;24.52;;
42030;SDS011;27709;52.036;5.906;2022-12-18T02:30:01;52.30;;;24.02;;
42030;SDS011;27709;52.036;5.906;2022-12-18T02:32:32;54.30;;;23.35;;
42030;SDS011;27709;52.036;5.906;2022-12-18T02:35:03;48.65;;;23.05;;
42030;SDS011;27709;52.036;5.906;2022-12-18T02:37:43;50.97;;;22.80;;
42030;SDS011;27709;52.036;5.906;2022-12-18T02:40:14;54.10;;;23.25;;
42030;SDS011;27709;52.036;5.906;2022-12-18T02:42:42;51.38;;;22.38;;
42030;SDS011;27709;52.036;5.906;2022-12-18T02:45:16;52.88;;;23.33;;
42030;SDS011;27709;52.036;5.906;2022-12-18T02:47:53;52.45;;;23.05;;
42030;SDS011;27709;52.036;5.906;2022-12-18T02:50:51;51.30;;;22.17;;
42030;SDS011;27709;52.036;5.906;2022-12-18T02:59:52;52.85;;;22.63;;
42030;SDS011;27709;52.036;5.906;2022-12-18T03:06:12;49.10;;;21.83;;
42030;SDS011;27709;52.036;5.906;2022-12-18T03:09:04;48.95;;;20.92;;
42030;SDS011;27709;52.036;5.906;2022-12-18T03:11:36;45.22;;;21.52;;
42030;SDS011;27709;52.036;5.906;2022-12-18T03:14:28;49.58;;;21.20;;
42030;SDS011;27709;52.036;5.906;2022-12-18T03:16:58;36.47;;;16.93;;
42030;SDS011;27709;52.036;5.906;2022-12-18T03:19:31;42.42;;;20.63;;
42030;SDS011;27709;52.036;5.906;2022-12-18T03:22:19;43.92;;;20.75;;
42030;SDS011;27709;52.036;5.906;2022-12-18T03:25:15;48.67;;;20.88;;
42030;SDS011;27709;52.036;5.906;2022-12-18T03:28:09;42.97;;;19.88;;
42030;SDS011;27709;52.036;5.906;2022-12-18T03:30:45;45.25;;;19.75;;
42030;SDS011;27709;52.036;5.906;2022-12-18T03:33:47;43.88;;;19.63;;
42030;SDS011;27709;52.036;5.906;2022-12-18T03:36:18;43.95;;;20.48;;
42030;SDS011;27709;52.036;5.906;2022-12-18T03:38:44;49.38;;;22.27;;
42030;SDS011;27709;52.036;5.906;2022-12-18T03:44:31;43.75;;;21.10;;
42030;SDS011;27709;52.036;5.906;2022-12-18T03:46:54;50.95;;;21.33;;
42030;SDS011;27709;52.036;5.906;2022-12-18T03:52:34;44.22;;;21.33;;
42030;SDS011;27709;52.036;5.906;2022-12-18T03:55:17;40.42;;;17.83;;
42030;SDS011;27709;52.036;5.906;2022-12-18T03:57:44;43.60;;;20.35;;
42030;SDS011;27709;52.036;5.906;2022-12-18T04:00:12;44.63;;;19.67;;
42030;SDS011;27709;52.036;5.906;2022-12-18T04:02:46;40.72;;;18.38;;
42030;SDS011;27709;52.036;5.906;2022-12-18T04:05:16;41.78;;;19.23;;
42030;SDS011;27709;52.036;5.906;2022-12-18T04:07:44;41.72;;;18.38;;
42030;SDS011;27709;52.036;5.906;2022-12-18T04:10:11;37.97;;;18.20;;
42030;SDS011;27709;52.036;5.906;2022-12-18T04:12:39;34.75;;;17.00;;
42030;SDS011;27709;52.036;5.906;2022-12-18T04:15:05;32.97;;;15.98;;
42030;SDS011;27709;52.036;5.906;2022-12-18T04:17:32;36.65;;;17.30;;
42030;SDS011;27709;52.036;5.906;2022-12-18T04:19:58;34.75;;;16.67;;
42030;SDS011;27709;52.036;5.906;2022-12-18T04:22:23;32.97;;;15.57;;
42030;SDS011;27709;52.036;5.906;2022-12-18T04:24:49;33.22;;;16.25;;
42030;SDS011;27709;52.036;5.906;2022-12-18T04:27:14;32.60;;;16.42;;
42030;SDS011;27709;52.036;5.906;2022-12-18T04:29:40;33.45;;;15.80;;
42030;SDS011;27709;52.036;5.906;2022-12-18T04:32:09;29.30;;;15.20;;
42030;SDS011;27709;52.036;5.906;2022-12-18T04:34:35;31.33;;;15.07;;
42030;SDS011;27709;52.036;5.906;2022-12-18T04:37:01;29.10;;;14.63;;
42030;SDS011;27709;52.036;5.906;2022-12-18T04:39:26;30.58;;;14.27;;
42030;SDS011;27709;52.036;5.906;2022-12-18T04:41:52;27.80;;;13.88;;
42030;SDS011;27709;52.036;5.906;2022-12-18T04:44:17;29.85;;;14.30;;
42030;SDS011;27709;52.036;5.906;2022-12-18T04:46:43;32.70;;;15.55;;
42030;SDS011;27709;52.036;5.906;2022-12-18T04:49:08;28.52;;;14.00;;
42030;SDS011;27709;52.036;5.906;2022-12-18T04:51:35;31.98;;;15.63;;
42030;SDS011;27709;52.036;5.906;2022-12-18T04:54:02;30.48;;;15.65;;
42030;SDS011;27709;52.036;5.906;2022-12-18T04:56:27;28.17;;;13.20;;
42030;SDS011;27709;52.036;5.906;2022-12-18T04:58:53;27.40;;;13.68;;
42030;SDS011;27709;52.036;5.906;2022-12-18T05:01:18;29.30;;;14.80;;
42030;SDS011;27709;52.036;5.906;2022-12-18T05:03:44;26.60;;;13.48;;
42030;SDS011;27709;52.036;5.906;2022-12-18T05:06:10;27.73;;;13.50;;
42030;SDS011;27709;52.036;5.906;2022-12-18T05:08:35;25.42;;;13.70;;
42030;SDS011;27709;52.036;5.906;2022-12-18T05:11:05;28.63;;;13.70;;
42030;SDS011;27709;52.036;5.906;2022-12-18T05:13:36;28.90;;;13.82;;
42030;SDS011;27709;52.036;5.906;2022-12-18T05:16:02;29.17;;;13.63;;
42030;SDS011;27709;52.036;5.906;2022-12-18T05:18:29;27.55;;;13.52;;
42030;SDS011;27709;52.036;5.906;2022-12-18T05:20:55;26.25;;;13.35;;
42030;SDS011;27709;52.036;5.906;2022-12-18T05:23:21;24.67;;;12.48;;
42030;SDS011;27709;52.036;5.906;2022-12-18T05:25:51;28.77;;;14.20;;
42030;SDS011;27709;52.036;5.906;2022-12-18T05:28:22;25.80;;;13.98;;
42030;SDS011;27709;52.036;5.906;2022-12-18T05:30:52;29.98;;;14.60;;
42030;SDS011;27709;52.036;5.906;2022-12-18T05:33:19;29.17;;;14.38;;
42030;SDS011;27709;52.036;5.906;2022-12-18T05:35:50;25.52;;;13.48;;
42030;SDS011;27709;52.036;5.906;2022-12-18T05:38:17;26.92;;;13.07;;
42030;SDS011;27709;52.036;5.906;2022-12-18T05:40:43;27.77;;;13.70;;
42030;SDS011;27709;52.036;5.906;2022-12-18T05:43:09;25.38;;;12.82;;
42030;SDS011;27709;52.036;5.906;2022-12-18T05:45:38;28.65;;;14.00;;
42030;SDS011;27709;52.036;5.906;2022-12-18T05:48:04;27.02;;;13.55;;
42030;SDS011;27709;52.036;5.906;2022-12-18T05:50:30;27.67;;;14.48;;
42030;SDS011;27709;52.036;5.906;2022-12-18T05:52:55;29.10;;;14.32;;
42030;SDS011;27709;52.036;5.906;2022-12-18T05:55:21;26.73;;;13.48;;
42030;SDS011;27709;52.036;5.906;2022-12-18T05:57:46;27.35;;;13.77;;
42030;SDS011;27709;52.036;5.906;2022-12-18T06:00:12;25.60;;;13.82;;
42030;SDS011;27709;52.036;5.906;2022-12-18T06:02:38;30.33;;;15.35;;
42030;SDS011;27709;52.036;5.906;2022-12-18T06:05:04;26.65;;;13.77;;
42030;SDS011;27709;52.036;5.906;2022-12-18T06:07:30;26.50;;;13.70;;
42030;SDS011;27709;52.036;5.906;2022-12-18T06:09:55;25.98;;;13.85;;
42030;SDS011;27709;52.036;5.906;2022-12-18T06:12:21;26.95;;;14.00;;
42030;SDS011;27709;52.036;5.906;2022-12-18T06:14:46;26.50;;;13.07;;
42030;SDS011;27709;52.036;5.906;2022-12-18T06:17:12;27.80;;;13.73;;
42030;SDS011;27709;52.036;5.906;2022-12-18T06:19:38;26.17;;;13.68;;
42030;SDS011;27709;52.036;5.906;2022-12-18T06:22:03;27.40;;;14.02;;
42030;SDS011;27709;52.036;5.906;2022-12-18T06:24:29;31.45;;;14.43;;
42030;SDS011;27709;52.036;5.906;2022-12-18T06:26:55;30.70;;;14.57;;
42030;SDS011;27709;52.036;5.906;2022-12-18T06:29:22;27.50;;;14.52;;
42030;SDS011;27709;52.036;5.906;2022-12-18T06:31:47;30.13;;;14.95;;
42030;SDS011;27709;52.036;5.906;2022-12-18T06:34:13;27.90;;;14.63;;
42030;SDS011;27709;52.036;5.906;2022-12-18T06:36:38;31.10;;;14.70;;
42030;SDS011;27709;52.036;5.906;2022-12-18T06:39:04;25.20;;;13.32;;
42030;SDS011;27709;52.036;5.906;2022-12-18T06:41:29;25.95;;;13.15;;
42030;SDS011;27709;52.036;5.906;2022-12-18T06:43:55;28.63;;;13.98;;
42030;SDS011;27709;52.036;5.906;2022-12-18T06:46:22;25.23;;;13.13;;
42030;SDS011;27709;52.036;5.906;2022-12-18T06:48:48;26.98;;;14.40;;
42030;SDS011;27709;52.036;5.906;2022-12-18T06:51:18;25.50;;;12.90;;
42030;SDS011;27709;52.036;5.906;2022-12-18T06:53:45;26.08;;;13.75;;
42030;SDS011;27709;52.036;5.906;2022-12-18T06:56:10;30.38;;;14.63;;
42030;SDS011;27709;52.036;5.906;2022-12-18T06:58:37;29.30;;;14.65;;
42030;SDS011;27709;52.036;5.906;2022-12-18T07:01:03;29.42;;;14.27;;
42030;SDS011;27709;52.036;5.906;2022-12-18T07:03:31;26.58;;;13.98;;
42030;SDS011;27709;52.036;5.906;2022-12-18T07:05:56;29.77;;;13.98;;
42030;SDS011;27709;52.036;5.906;2022-12-18T07:08:22;27.77;;;13.23;;
42030;SDS011;27709;52.036;5.906;2022-12-18T07:10:47;28.83;;;13.77;;
42030;SDS011;27709;52.036;5.906;2022-12-18T07:13:14;24.30;;;12.85;;
42030;SDS011;27709;52.036;5.906;2022-12-18T07:15:40;24.10;;;13.88;;
42030;SDS011;27709;52.036;5.906;2022-12-18T07:18:06;24.38;;;13.20;;
42030;SDS011;27709;52.036;5.906;2022-12-18T07:20:31;27.23;;;13.35;;
42030;SDS011;27709;52.036;5.906;2022-12-18T07:22:57;24.88;;;13.20;;
42030;SDS011;27709;52.036;5.906;2022-12-18T07:25:22;25.13;;;13.50;;
42030;SDS011;27709;52.036;5.906;2022-12-18T07:27:48;27.33;;;13.50;;
42030;SDS011;27709;52.036;5.906;2022-12-18T07:30:14;24.20;;;12.05;;
42030;SDS011;27709;52.036;5.906;2022-12-18T07:32:40;26.52;;;13.38;;
42030;SDS011;27709;52.036;5.906;2022-12-18T07:35:06;22.95;;;12.40;;
42030;SDS011;27709;52.036;5.906;2022-12-18T07:37:31;27.67;;;12.90;;
42030;SDS011;27709;52.036;5.906;2022-12-18T07:39:57;22.83;;;11.50;;
42030;SDS011;27709;52.036;5.906;2022-12-18T07:42:22;28.73;;;12.73;;
42030;SDS011;27709;52.036;5.906;2022-12-18T07:45:00;23.35;;;12.40;;
42030;SDS011;27709;52.036;5.906;2022-12-18T07:47:26;25.48;;;12.48;;
42030;SDS011;27709;52.036;5.906;2022-12-18T07:49:52;26.77;;;13.02;;
42030;SDS011;27709;52.036;5.906;2022-12-18T07:52:18;25.13;;;12.90;;
42030;SDS011;27709;52.036;5.906;2022-12-18T07:54:45;24.45;;;12.45;;
42030;SDS011;27709;52.036;5.906;2022-12-18T07:57:10;24.90;;;11.23;;
42030;SDS011;27709;52.036;5.906;2022-12-18T07:59:36;22.77;;;11.43;;
42030;SDS011;27709;52.036;5.906;2022-12-18T08:02:02;22.90;;;11.65;;
42030;SDS011;27709;52.036;5.906;2022-12-18T08:04:28;24.85;;;12.85;;
42030;SDS011;27709;52.036;5.906;2022-12-18T08:06:53;23.00;;;11.75;;
42030;SDS011;27709;52.036;5.906;2022-12-18T08:09:19;24.05;;;11.32;;
42030;SDS011;27709;52.036;5.906;2022-12-18T08:11:44;21.27;;;10.82;;
42030;SDS011;27709;52.036;5.906;2022-12-18T08:14:10;23.98;;;10.98;;
42030;SDS011;27709;52.036;5.906;2022-12-18T08:16:36;22.40;;;10.95;;
42030;SDS011;27709;52.036;5.906;2022-12-18T08:19:02;25.15;;;10.82;;
42030;SDS011;27709;52.036;5.906;2022-12-18T08:21:28;21.45;;;11.35;;
42030;SDS011;27709;52.036;5.906;2022-12-18T08:23:56;21.83;;;10.80;;
42030;SDS011;27709;52.036;5.906;2022-12-18T08:26:24;20.42;;;10.55;;
42030;SDS011;27709;52.036;5.906;2022-12-18T08:28:52;20.23;;;10.07;;
42030;SDS011;27709;52.036;5.906;2022-12-18T08:31:19;20.60;;;10.48;;
42030;SDS011;27709;52.036;5.906;2022-12-18T08:33:47;21.95;;;10.80;;
42030;SDS011;27709;52.036;5.906;2022-12-18T08:36:14;20.27;;;10.30;;
42030;SDS011;27709;52.036;5.906;2022-12-18T08:38:40;20.52;;;10.13;;
42030;SDS011;27709;52.036;5.906;2022-12-18T08:41:06;18.77;;;9.68;;
42030;SDS011;27709;52.036;5.906;2022-12-18T08:43:37;20.17;;;10.55;;
42030;SDS011;27709;52.036;5.906;2022-12-18T08:46:22;21.63;;;10.00;;
42030;SDS011;27709;52.036;5.906;2022-12-18T08:48:55;20.17;;;10.23;;
42030;SDS011;27709;52.036;5.906;2022-12-18T08:51:22;19.42;;;9.77;;
42030;SDS011;27709;52.036;5.906;2022-12-18T08:53:48;22.02;;;10.75;;
42030;SDS011;27709;52.036;5.906;2022-12-18T08:56:14;18.35;;;9.52;;
42030;SDS011;27709;52.036;5.906;2022-12-18T08:58:40;23.00;;;9.52;;
42030;SDS011;27709;52.036;5.906;2022-12-18T09:01:08;18.65;;;9.13;;
42030;SDS011;27709;52.036;5.906;2022-12-18T09:03:35;17.88;;;9.27;;
42030;SDS011;27709;52.036;5.906;2022-12-18T09:06:01;21.58;;;9.77;;
42030;SDS011;27709;52.036;5.906;2022-12-18T09:08:27;17.40;;;9.15;;
42030;SDS011;27709;52.036;5.906;2022-12-18T09:10:54;18.65;;;9.50;;
42030;SDS011;27709;52.036;5.906;2022-12-18T09:13:20;18.63;;;9.38;;
42030;SDS011;27709;52.036;5.906;2022-12-18T09:15:46;20.60;;;9.88;;
42030;SDS011;27709;52.036;5.906;2022-12-18T09:18:14;20.00;;;9.18;;
42030;SDS011;27709;52.036;5.906;2022-12-18T09:20:41;18.63;;;8.98;;
42030;SDS011;27709;52.036;5.906;2022-12-18T09:23:07;17.15;;;8.90;;
42030;SDS011;27709;52.036;5.906;2022-12-18T09:25:35;17.10;;;8.95;;
42030;SDS011;27709;52.036;5.906;2022-12-18T09:28:02;19.08;;;9.45;;
42030;SDS011;27709;52.036;5.906;2022-12-18T09:30:29;17.48;;;8.98;;
42030;SDS011;27709;52.036;5.906;2022-12-18T09:32:55;16.73;;;8.38;;
42030;SDS011;27709;52.036;5.906;2022-12-18T09:35:21;17.15;;;9.05;;
42030;SDS011;27709;52.036;5.906;2022-12-18T09:37:47;17.13;;;9.77;;
42030;SDS011;27709;52.036;5.906;2022-12-18T09:40:13;18.63;;;8.73;;
42030;SDS011;27709;52.036;5.906;2022-12-18T09:42:41;15.50;;;8.57;;
42030;SDS011;27709;52.036;5.906;2022-12-18T09:45:13;17.23;;;8.47;;
42030;SDS011;27709;52.036;5.906;2022-12-18T09:47:41;15.77;;;8.52;;
42030;SDS011;27709;52.036;5.906;2022-12-18T09:50:17;16.27;;;8.43;;
42030;SDS011;27709;52.036;5.906;2022-12-18T09:52:46;16.02;;;8.02;;
42030;SDS011;27709;52.036;5.906;2022-12-18T09:58:48;18.35;;;7.97;;
42030;SDS011;27709;52.036;5.906;2022-12-18T10:00:56;14.60;;;7.70;;
42030;SDS011;27709;52.036;5.906;2022-12-18T10:03:21;18.65;;;9.65;;
42030;SDS011;27709;52.036;5.906;2022-12-18T10:08:40;19.33;;;8.90;;
42030;SDS011;27709;52.036;5.906;2022-12-18T10:11:16;18.95;;;9.05;;
42030;SDS011;27709;52.036;5.906;2022-12-18T10:13:53;17.95;;;8.82;;
42030;SDS011;27709;52.036;5.906;2022-12-18T10:16:56;15.25;;;8.07;;
42030;SDS011;27709;52.036;5.906;2022-12-18T10:19:36;15.43;;;8.32;;
42030;SDS011;27709;52.036;5.906;2022-12-18T10:27:41;19.08;;;8.57;;
42030;SDS011;27709;52.036;5.906;2022-12-18T10:30:17;15.60;;;8.95;;
42030;SDS011;27709;52.036;5.906;2022-12-18T10:32:44;17.02;;;8.50;;
42030;SDS011;27709;52.036;5.906;2022-12-18T10:35:20;19.45;;;9.60;;
42030;SDS011;27709;52.036;5.906;2022-12-18T10:40:31;16.45;;;7.50;;
42030;SDS011;27709;52.036;5.906;2022-12-18T10:43:12;16.35;;;8.60;;
42030;SDS011;27709;52.036;5.906;2022-12-18T10:45:39;17.90;;;8.57;;
42030;SDS011;27709;52.036;5.906;2022-12-18T10:48:21;18.70;;;9.70;;
42030;SDS011;27709;52.036;5.906;2022-12-18T10:50:47;18.45;;;9.30;;
42030;SDS011;27709;52.036;5.906;2022-12-18T10:53:18;16.55;;;8.50;;
42030;SDS011;27709;52.036;5.906;2022-12-18T10:55:47;15.15;;;8.15;;
42030;SDS011;27709;52.036;5.906;2022-12-18T10:58:20;17.67;;;8.65;;
42030;SDS011;27709;52.036;5.906;2022-12-18T11:03:46;18.08;;;9.13;;
42030;SDS011;27709;52.036;5.906;2022-12-18T11:06:18;19.15;;;9.13;;
42030;SDS011;27709;52.036;5.906;2022-12-18T11:09:32;14.80;;;8.20;;
42030;SDS011;27709;52.036;5.906;2022-12-18T11:11:52;15.18;;;8.40;;
42030;SDS011;27709;52.036;5.906;2022-12-18T11:14:27;15.63;;;8.20;;
42030;SDS011;27709;52.036;5.906;2022-12-18T11:16:55;18.67;;;8.77;;
42030;SDS011;27709;52.036;5.906;2022-12-18T11:19:26;17.40;;;8.45;;
42030;SDS011;27709;52.036;5.906;2022-12-18T11:24:27;15.07;;;8.40;;
42030;SDS011;27709;52.036;5.906;2022-12-18T11:27:00;16.75;;;8.75;;
42030;SDS011;27709;52.036;5.906;2022-12-18T11:29:34;15.48;;;7.97;;
42030;SDS011;27709;52.036;5.906;2022-12-18T11:34:59;17.45;;;8.48;;
42030;SDS011;27709;52.036;5.906;2022-12-18T11:37:38;18.80;;;9.25;;
42030;SDS011;27709;52.036;5.906;2022-12-18T11:40:13;15.75;;;8.65;;
42030;SDS011;27709;52.036;5.906;2022-12-18T11:42:45;18.05;;;8.85;;
42030;SDS011;27709;52.036;5.906;2022-12-18T11:45:29;16.88;;;8.82;;
42030;SDS011;27709;52.036;5.906;2022-12-18T11:50:51;17.60;;;9.07;;
42030;SDS011;27709;52.036;5.906;2022-12-18T11:53:18;13.88;;;8.60;;
42030;SDS011;27709;52.036;5.906;2022-12-18T12:08:56;15.93;;;8.93;;
42030;SDS011;27709;52.036;5.906;2022-12-18T12:11:56;14.60;;;8.40;;
42030;SDS011;27709;52.036;5.906;2022-12-18T12:14:50;18.23;;;9.38;;
42030;SDS011;27709;52.036;5.906;2022-12-18T12:17:24;16.17;;;9.43;;
42030;SDS011;27709;52.036;5.906;2022-12-18T12:20:17;17.15;;;9.02;;
42030;SDS011;27709;52.036;5.906;2022-12-18T12:25:36;17.10;;;8.45;;
42030;SDS011;27709;52.036;5.906;2022-12-18T12:33:58;18.73;;;11.73;;
42030;SDS011;27709;52.036;5.906;2022-12-18T12:36:32;16.92;;;9.02;;
42030;SDS011;27709;52.036;5.906;2022-12-18T12:39:23;18.38;;;8.77;;
42030;SDS011;27709;52.036;5.906;2022-12-18T12:41:53;18.52;;;8.80;;
42030;SDS011;27709;52.036;5.906;2022-12-18T12:44:47;15.82;;;8.95;;
42030;SDS011;27709;52.036;5.906;2022-12-18T12:47:21;17.40;;;8.70;;
42030;SDS011;27709;52.036;5.906;2022-12-18T12:49:51;23.75;;;11.82;;
42030;SDS011;27709;52.036;5.906;2022-12-18T12:52:28;18.95;;;9.88;;
42030;SDS011;27709;52.036;5.906;2022-12-18T12:55:02;16.50;;;8.98;;
42030;SDS011;27709;52.036;5.906;2022-12-18T12:57:31;18.05;;;9.90;;
42030;SDS011;27709;52.036;5.906;2022-12-18T13:02:44;16.67;;;9.20;;
42030;SDS011;27709;52.036;5.906;2022-12-18T13:08:11;18.35;;;8.93;;
42030;SDS011;27709;52.036;5.906;2022-12-18T13:10:47;14.93;;;8.10;;
42030;SDS011;27709;52.036;5.906;2022-12-18T13:13:13;17.63;;;8.85;;
42030;SDS011;27709;52.036;5.906;2022-12-18T13:18:28;16.90;;;8.85;;
42030;SDS011;27709;52.036;5.906;2022-12-18T13:23:23;15.93;;;9.02;;
42030;SDS011;27709;52.036;5.906;2022-12-18T13:25:59;15.52;;;8.40;;
42030;SDS011;27709;52.036;5.906;2022-12-18T13:31:10;20.85;;;10.23;;
42030;SDS011;27709;52.036;5.906;2022-12-18T13:38:47;16.30;;;8.30;;
42030;SDS011;27709;52.036;5.906;2022-12-18T13:41:39;14.20;;;8.02;;
42030;SDS011;27709;52.036;5.906;2022-12-18T13:51:49;17.20;;;8.77;;
42030;SDS011;27709;52.036;5.906;2022-12-18T13:56:45;13.57;;;8.30;;
42030;SDS011;27709;52.036;5.906;2022-12-18T13:59:14;19.15;;;9.50;;
42030;SDS011;27709;52.036;5.906;2022-12-18T14:01:57;18.00;;;9.00;;
42030;SDS011;27709;52.036;5.906;2022-12-18T14:04:29;14.48;;;8.55;;
42030;SDS011;27709;52.036;5.906;2022-12-18T14:07:15;19.02;;;9.90;;
42030;SDS011;27709;52.036;5.906;2022-12-18T14:09:46;18.00;;;9.32;;
42030;SDS011;27709;52.036;5.906;2022-12-18T14:12:15;18.85;;;9.80;;
42030;SDS011;27709;52.036;5.906;2022-12-18T14:15:02;21.00;;;10.80;;
42030;SDS011;27709;52.036;5.906;2022-12-18T14:17:28;17.85;;;8.85;;
42030;SDS011;27709;52.036;5.906;2022-12-18T14:19:56;16.95;;;9.13;;
42030;SDS011;27709;52.036;5.906;2022-12-18T14:22:25;17.90;;;8.82;;
42030;SDS011;27709;52.036;5.906;2022-12-18T14:27:47;19.52;;;9.15;;
42030;SDS011;27709;52.036;5.906;2022-12-18T14:30:29;18.15;;;8.77;;
42030;SDS011;27709;52.036;5.906;2022-12-18T14:33:01;15.15;;;8.18;;
42030;SDS011;27709;52.036;5.906;2022-12-18T14:35:54;15.25;;;8.75;;
42030;SDS011;27709;52.036;5.906;2022-12-18T14:40:59;16.50;;;9.60;;
42030;SDS011;27709;52.036;5.906;2022-12-18T14:43:31;17.13;;;8.57;;
42030;SDS011;27709;52.036;5.906;2022-12-18T14:45:58;17.35;;;9.00;;
42030;SDS011;27709;52.036;5.906;2022-12-18T14:53:39;19.15;;;9.75;;
42030;SDS011;27709;52.036;5.906;2022-12-18T14:56:14;18.55;;;10.27;;
42030;SDS011;27709;52.036;5.906;2022-12-18T14:58:44;18.13;;;8.82;;
42030;SDS011;27709;52.036;5.906;2022-12-18T15:03:47;16.67;;;9.50;;
42030;SDS011;27709;52.036;5.906;2022-12-18T15:06:21;21.33;;;10.25;;
42030;SDS011;27709;52.036;5.906;2022-12-18T15:08:51;20.13;;;9.95;;
42030;SDS011;27709;52.036;5.906;2022-12-18T15:13:51;17.92;;;9.32;;
42030;SDS011;27709;52.036;5.906;2022-12-18T15:16:17;17.23;;;9.18;;
42030;SDS011;27709;52.036;5.906;2022-12-18T15:18:42;83.40;;;45.50;;
42030;SDS011;27709;52.036;5.906;2022-12-18T15:21:10;34.03;;;16.50;;
42030;SDS011;27709;52.036;5.906;2022-12-18T15:26:10;19.60;;;10.93;;
42030;SDS011;27709;52.036;5.906;2022-12-18T15:28:51;18.35;;;9.52;;
42030;SDS011;27709;52.036;5.906;2022-12-18T15:31:32;18.05;;;9.50;;
42030;SDS011;27709;52.036;5.906;2022-12-18T15:34:10;19.55;;;10.05;;
42030;SDS011;27709;52.036;5.906;2022-12-18T15:36:38;27.23;;;15.07;;
42030;SDS011;27709;52.036;5.906;2022-12-18T15:39:04;25.75;;;12.88;;
42030;SDS011;27709;52.036;5.906;2022-12-18T15:41:31;46.97;;;25.98;;
42030;SDS011;27709;52.036;5.906;2022-12-18T15:43:58;25.92;;;13.35;;
42030;SDS011;27709;52.036;5.906;2022-12-18T15:46:24;21.20;;;11.60;;
42030;SDS011;27709;52.036;5.906;2022-12-18T15:48:55;21.50;;;11.77;;
42030;SDS011;27709;52.036;5.906;2022-12-18T15:51:22;22.48;;;12.20;;
42030;SDS011;27709;52.036;5.906;2022-12-18T15:53:55;21.73;;;11.13;;
42030;SDS011;27709;52.036;5.906;2022-12-18T15:56:22;18.05;;;10.00;;
42030;SDS011;27709;52.036;5.906;2022-12-18T15:59:13;21.05;;;11.80;;
42030;SDS011;27709;52.036;5.906;2022-12-18T16:01:40;19.27;;;10.85;;
42030;SDS011;27709;52.036;5.906;2022-12-18T16:04:09;21.27;;;11.77;;
42030;SDS011;27709;52.036;5.906;2022-12-18T16:06:37;19.50;;;10.10;;
42030;SDS011;27709;52.036;5.906;2022-12-18T16:09:02;25.90;;;12.77;;
42030;SDS011;27709;52.036;5.906;2022-12-18T16:11:28;21.90;;;11.73;;
42030;SDS011;27709;52.036;5.906;2022-12-18T16:16:43;22.13;;;11.85;;
42030;SDS011;27709;52.036;5.906;2022-12-18T16:19:13;26.00;;;14.50;;
42030;SDS011;27709;52.036;5.906;2022-12-18T16:21:39;25.33;;;13.07;;
42030;SDS011;27709;52.036;5.906;2022-12-18T16:24:05;22.10;;;11.20;;
42030;SDS011;27709;52.036;5.906;2022-12-18T16:26:34;25.15;;;13.50;;
42030;SDS011;27709;52.036;5.906;2022-12-18T16:28:59;28.98;;;15.90;;
42030;SDS011;27709;52.036;5.906;2022-12-18T16:31:25;22.80;;;12.57;;
42030;SDS011;27709;52.036;5.906;2022-12-18T16:34:09;23.65;;;12.00;;
42030;SDS011;27709;52.036;5.906;2022-12-18T16:36:38;24.42;;;13.32;;
42030;SDS011;27709;52.036;5.906;2022-12-18T16:39:04;22.92;;;11.45;;
42030;SDS011;27709;52.036;5.906;2022-12-18T16:41:29;28.58;;;13.48;;
42030;SDS011;27709;52.036;5.906;2022-12-18T16:43:58;26.67;;;14.07;;
42030;SDS011;27709;52.036;5.906;2022-12-18T16:46:24;23.65;;;12.82;;
42030;SDS011;27709;52.036;5.906;2022-12-18T16:48:50;27.55;;;13.63;;
42030;SDS011;27709;52.036;5.906;2022-12-18T16:51:15;25.38;;;13.13;;